Logo AVAMET
Benvolgut visitant, si us plau, ingressa Recuperar contrasenya
AVAMET paisatges

Inforatge Alberic

Dades diàries. Acumulats / Últims 30 dies disponibles

Data Temperatura (°C) Humitat rel. (%) Pressió rel. (hPa) Vent (km/h) Precipitació
Mínima Mitjana Màxima Amplitud
tèrmica
Mínima Mitjana Màxima Mínima Mitjana Màxima Predom. Mitjana Ràfega
màxima
Total
(mm)
Índex-n
Mínima Mitjana Màxima Mínima Mitjana Màxima n
0 a 1
P0 max
mm 5'
Dades mensuals acumulades fins l'últim dia disponible
05/2020 11,6 15,9 20,9 21,8 19,0 27,9 34,3 22,7 22 66 92 1.003 1.017 1.028   5,6 48,3 41,4
Dades anuals acumulades fins l'últim dia disponible
2020 1,2 10,9 20,9 15,8 8,0 21,5 34,3 33,1 21 71 97 1.000 1.020 1.035   4,9 77,2 369,6
Últims 30 dies disponibles
31-05-2020 16,1     23,4     33,3 17,2 34 63 85 1.009 1.013 1.016 S 5,6 30,6 0,0
30-05-2020 15,3     22,6     28,4 13,1 44 63 82 1.012 1.015 1.017 NW 6,4 30,6 0,0
29-05-2020 14,3     23,2     31,3 17,0 27 61 85 1.012 1.017 1.022 SE 4,3 20,9 0,0
28-05-2020 17,1     21,7     26,6 9,5 34 70 88 1.021 1.024 1.027 NE 6,1 29,0 0,0
27-05-2020 15,0     21,4     27,6 12,6 40 68 87 1.025 1.025 1.027 NE 7,4 35,4 0,0
26-05-2020 16,4     21,7     27,2 10,8 47 69 88 1.024 1.025 1.027 NE 4,8 27,4 0,0
25-05-2020 15,7     21,1     25,5 9,8 49 69 88 1.024 1.026 1.027 NE 3,9 25,7 0,0
24-05-2020 18,4     22,1     25,6 7,2 63 75 89 1.026 1.027 1.028 NE 6,9 29,0 0,0
23-05-2020 17,2     24,1     30,6 13,4 40 65 86 1.022 1.024 1.026 NNW 7,2 33,8 0,0
22-05-2020 17,3     24,6     32,3 15,0 40 65 87 1.020 1.022 1.025 NNW 6,6 30,6 0,0
21-05-2020 16,5     24,1     32,1 15,6 38 64 87 1.017 1.019 1.021 SE 4,5 25,7 0,0
20-05-2020 16,3     24,1     33,0 16,7 34 62 86 1.013 1.015 1.018 SE 5,3 33,8 0,0
19-05-2020 14,2     23,6     32,8 18,6 32 60 87 1.014 1.017 1.021 SE 4,3 25,7 0,0
18-05-2020 14,0     21,8     29,2 15,2 39 65 87 1.017 1.020 1.022 SE 5,1 29,0 0,0
17-05-2020 14,9     20,0     25,7 10,8 43 70 90 1.019 1.020 1.022 SE 3,2 24,1 0,0
16-05-2020 15,3     17,2     19,0 3,7 71 83 92 1.015 1.017 1.019 SE 3,2 25,7 0,0
15-05-2020 11,6     16,8     21,1 9,5 56 76 90 1.010 1.013 1.016 NE 3,1 22,5 0,4
14-05-2020 13,4     16,8     21,1 7,7 47 71 90 1.003 1.005 1.010 WSW 4,8 41,8 38,6 0,44 6,30
13-05-2020 13,8     20,5     26,4 12,6 35 54 81 1.004 1.006 1.008 NW 5,3 30,6 0,0
12-05-2020 16,4     19,8     23,9 7,5 49 66 84 1.007 1.009 1.012 NE 6,1 38,6 0,6
11-05-2020 16,5     22,1     27,2 10,7 35 50 66 1.007 1.008 1.011 WSW 9,0 43,5 0,0
10-05-2020 16,1     20,6     25,8 9,7 30 62 91 1.004 1.006 1.009 WSW 8,4 48,3 1,8
09-05-2020 16,2     20,7     26,2 10,0 58 77 91 1.008 1.012 1.016 NE 6,0 32,2 0,0
08-05-2020 15,4     20,1     24,3 8,9 55 74 88 1.014 1.017 1.019 NNE 5,0 29,0 0,0
07-05-2020 16,6     21,2     25,7 9,1 44 72 89 1.017 1.018 1.019 NE 5,6 29,0 0,0
06-05-2020 15,7     22,3     28,9 13,2 43 68 88 1.015 1.016 1.018 NNE 5,6 30,6 0,0
05-05-2020 16,0     22,4     32,3 16,3 36 70 90 1.013 1.014 1.016 SE 5,5 30,6 0,0
04-05-2020 15,3     20,8     26,6 11,3 56 74 88 1.013 1.016 1.018 NNW 5,3 25,7 0,0
03-05-2020 16,8     23,7     29,8 13,0 36 57 84 1.016 1.017 1.019 NE 5,5 30,6 0,0
02-05-2020 20,9     27,1     34,3 13,4 22 45 65 1.015 1.018 1.020 WSW 5,1 29,0 0,0
Últims 13 mesos disponibles
04/2020 7,6 12,8 18,2 16,6 16,1 21,5 27,1 19,5 44 74 92 1.006 1.016 1.026 NE 4,4 40,2 45,0
03/2020 5,2 10,7 17,7 14,7 10,1 19,3 28,5 23,3 41 70 91 1.007 1.017 1.027 WSW 6,0 77,2 100,2
02/2020 4,9 8,9 13,2 15,1 14,4 22,3 27,1 22,2 45 69 88 1.014 1.026 1.033 SSE 4,1 43,5 4,0
01/2020 1,2 6,1 13,3 10,9 8,0 16,7 20,9 19,7 57 76 95 1.016 1.026 1.033 SE 4,2 64,4 179,0
12/2019 3,4 10,2 17,7 14,2 12,6 18,8 25,9 22,5 48 71 94 1.002 1.019 1.033 SSE 5,4 83,7 113,8
11/2019 3,5 11,6 21,9 16,1 16,4 20,3 28,6 25,1 45 58 79 999 1.011 1.019 WSW 6,2 74,0 5,8
10/2019 10,2 15,3 20,5 20,5 16,5 26,6 35,3 25,1 46 69 87 1.008 1.016 1.022 SE 3,5 38,6 32,0
09/2019 15,9 19,8 23,1 24,3 22,1 29,3 36,4 20,5 35 72 87 1.010 1.017 1.024 SSE 5,2 50,0 109,4
08/2019 17,3 22,0 26,6 27,4 28,6 33,6 42,7 25,4 45 68 78 1.010 1.015 1.020 SSE 5,6 40,7 6,0
07/2019 20,3 22,2 26,3 27,8 29,1 33,6 38,5 18,2 45 65 79 1.006 1.014 1.021 SSE 6,4 45,0 2,6
06/2019 12,6 17,3 22,5 23,9 22,7 30,1 39,6 27,0 33 61 78 1.009 1.015 1.021 SSE 6,1 55,6 0,0
05/2019 7,7 14,1 21,3 19,9 19,7 26,2 33,7 26,0 45 65 82 1.005 1.015 1.024 SSE 5,2 51,9 14,4
04/2019 7,7 11,1 14,9 16,0 14,8 21,3 30,2 22,5 44 67 97 1.000 1.013 1.025 S 6,0 53,7 137,4
Tots els anys disponibles
2019 -1,5 13,6 26,6 19,2 12,6 25,1 42,7 44,2 27 65 97 999 1.017 1.034 SSE 5,1 83,7 474,4
2018 0,3 14,1 29,7 18,6 8,6 23,9 38,5 38,2 33 68 96 993 1.016 1.034 SSE 4,8 75,9 594,2
2017 -0,7 14,7 26,4 19,8 12,2 25,9 41,0 41,7 27 69 96 997 1.018 1.036 SSE 2,7 77,8 203,4
Temperatura (°C)
Humitat relativa (%)
Velocitat del vent i ràfega màxima (km/h)
Direcció del vent (°)
Pressió (hPa)
Precipitació (mm)
Nota sobre les dades: s'avisa a l'usuari de la provisionalitat i no oficialitat d'aquestes dades
Logo AVAMET blanc
Web allotjada a Sollutia
Llicència de Creative CommonsLa web d'AVAMET i els seus continguts estan subjectes a una llicència de
Reconeixement - No Comercial - Compartir igual
Últimes estacions: Xodos - la Vega (Soci), la Vall d'Alba - Centre (Ajuntament soci), Chera (Ajuntament soci) - - -